Time;durP1;ratioP1;P1;durP2;ratioP2;P2;SDS_P1;SDS_P2;PMS_P1;PMS_P2;Temp;Humidity;BMP_temperature;BMP_pressure;BME280_temperature;BME280_humidity;BME280_pressure;Samples;Min_cycle;Max_cycle;Signal;HPM_P1;HPM_P2
2021/11/05 00:02:03;;;;;;;16.67;11.00;;;6.60;98.00;;;;;;5036075;28;20025;-74
2021/11/05 00:04:29;;;;;;;16.47;9.90;;;6.50;98.00;;;;;;5053904;28;20542;-74
2021/11/05 00:06:54;;;;;;;15.37;10.00;;;6.50;98.10;;;;;;5053984;28;20037;-74
2021/11/05 00:09:20;;;;;;;14.13;9.17;;;6.50;98.10;;;;;;5053806;28;20470;-74
2021/11/05 00:11:46;;;;;;;15.87;9.63;;;6.50;98.10;;;;;;5053743;28;20039;-74
2021/11/05 00:14:12;;;;;;;14.57;9.87;;;6.40;98.00;;;;;;5052429;28;20021;-74
2021/11/05 00:16:37;;;;;;;15.40;9.73;;;6.50;98.10;;;;;;5052459;28;20414;-74
2021/11/05 00:19:03;;;;;;;14.20;8.87;;;6.50;98.10;;;;;;5052399;28;20182;-74
2021/11/05 00:21:29;;;;;;;14.50;9.10;;;6.40;98.00;;;;;;5052651;28;20401;-74
2021/11/05 00:23:54;;;;;;;14.50;9.27;;;6.40;98.00;;;;;;5053666;28;20425;-74
2021/11/05 00:26:20;;;;;;;14.40;9.07;;;6.30;98.00;;;;;;5052327;28;20041;-74
2021/11/05 00:28:46;;;;;;;15.60;9.07;;;6.40;98.10;;;;;;5035360;28;20060;-74
2021/11/05 00:31:11;;;;;;;15.63;8.67;;;6.30;98.10;;;;;;5053510;28;20028;-75
2021/11/05 00:33:37;;;;;;;14.07;9.07;;;6.30;98.10;;;;;;5052300;28;20037;-74
2021/11/05 00:36:03;;;;;;;14.67;8.67;;;6.30;98.10;;;;;;5053449;28;20079;-74
2021/11/05 00:38:29;;;;;;;14.20;8.20;;;6.30;98.10;;;;;;5052121;28;20034;-75
2021/11/05 00:40:54;;;;;;;16.30;8.77;;;6.30;98.20;;;;;;5053318;28;20493;-74
2021/11/05 00:43:20;;;;;;;12.57;9.17;;;6.30;98.20;;;;;;5052496;28;20029;-75
2021/11/05 00:45:46;;;;;;;13.67;8.37;;;6.30;98.20;;;;;;5052241;28;20041;-75
2021/11/05 00:48:11;;;;;;;15.13;8.87;;;6.30;98.30;;;;;;5053392;28;20035;-75
2021/11/05 00:50:37;;;;;;;12.67;8.20;;;6.20;98.30;;;;;;5051933;28;20033;-75
2021/11/05 00:53:03;;;;;;;13.37;7.90;;;6.30;98.40;;;;;;5053167;28;20041;-75
2021/11/05 00:55:29;;;;;;;13.57;8.80;;;6.20;98.30;;;;;;5053076;28;20029;-75
2021/11/05 00:57:54;;;;;;;14.57;8.23;;;6.20;98.30;;;;;;5051931;28;20057;-75
2021/11/05 01:00:20;;;;;;;14.80;9.10;;;6.20;98.40;;;;;;5051786;28;20029;-75
2021/11/05 01:02:46;;;;;;;16.10;8.70;;;6.10;98.40;;;;;;5051732;28;20029;-75
2021/11/05 01:05:13;;;;;;;14.17;9.07;;;6.20;98.50;;;;;;5051736;28;20036;-76
2021/11/05 01:07:39;;;;;;;14.37;8.27;;;6.10;98.50;;;;;;5051843;28;20044;-75
2021/11/05 01:10:05;;;;;;;15.90;9.40;;;6.10;98.60;;;;;;5035032;28;20025;-76
2021/11/05 01:12:31;;;;;;;17.90;8.83;;;6.10;98.60;;;;;;5053012;28;20440;-75
2021/11/05 01:14:57;;;;;;;14.23;7.03;;;6.10;98.60;;;;;;5052828;28;20029;-75
2021/11/05 01:17:23;;;;;;;17.23;7.83;;;6.10;98.60;;;;;;5053235;28;20029;-75
2021/11/05 01:19:49;;;;;;;14.20;8.53;;;6.20;98.70;;;;;;5051841;28;20109;-75
2021/11/05 01:22:14;;;;;;;12.50;7.93;;;6.10;99.00;;;;;;5051653;28;20401;-75
2021/11/05 01:24:40;;;;;;;14.77;7.90;;;6.10;98.80;;;;;;5035117;28;20542;-75
2021/11/05 01:27:06;;;;;;;13.67;8.47;;;6.10;98.80;;;;;;5035133;28;20091;-75
2021/11/05 01:29:32;;;;;;;12.77;7.73;;;6.10;98.80;;;;;;5052558;28;20458;-75
2021/11/05 01:31:57;;;;;;;13.40;7.77;;;6.10;98.80;;;;;;5052693;28;20056;-75
2021/11/05 01:34:23;;;;;;;14.70;7.17;;;6.10;98.80;;;;;;5051599;28;20033;-75
2021/11/05 01:36:49;;;;;;;11.70;6.23;;;6.10;98.80;;;;;;5052803;28;20354;-75
2021/11/05 01:39:16;;;;;;;13.17;6.73;;;6.20;98.90;;;;;;5052777;28;20037;-75
2021/11/05 01:41:42;;;;;;;14.33;7.13;;;6.10;98.90;;;;;;5053170;28;20112;-75
2021/11/05 01:44:08;;;;;;;16.20;7.17;;;6.10;98.90;;;;;;5052733;28;20037;-75
2021/11/05 01:46:40;;;;;;;11.00;6.63;;;6.10;99.00;;;;;;5052722;28;20044;-75
2021/11/05 01:49:06;;;;;;;15.20;7.53;;;6.10;99.00;;;;;;5035678;28;20044;-75
2021/11/05 01:51:32;;;;;;;13.30;7.37;;;6.20;99.00;;;;;;5052673;28;20025;-75
2021/11/05 01:53:58;;;;;;;16.17;6.67;;;6.10;99.00;;;;;;5051398;28;20029;-76
2021/11/05 01:56:23;;;;;;;12.73;6.97;;;6.10;99.10;;;;;;5056655;28;20033;-76
2021/11/05 01:58:49;;;;;;;12.73;6.57;;;6.10;99.10;;;;;;5054923;28;20025;-75
2021/11/05 02:01:14;;;;;;;14.20;6.90;;;6.10;99.10;;;;;;5055152;28;20033;-76
2021/11/05 02:03:40;;;;;;;11.40;6.57;;;6.10;99.10;;;;;;5056353;28;20029;-76
2021/11/05 02:06:06;;;;;;;13.53;6.13;;;6.10;99.10;;;;;;5055060;28;20037;-76
2021/11/05 02:08:35;;;;;;;11.10;6.27;;;6.10;99.10;;;;;;5056244;28;20428;-75
2021/11/05 02:11:05;;;;;;;12.07;6.10;;;6.10;99.10;;;;;;5056049;28;20028;-76
2021/11/05 02:13:33;;;;;;;11.80;6.07;;;6.10;99.20;;;;;;5056141;28;20029;-76
2021/11/05 02:15:59;;;;;;;11.77;6.33;;;6.10;99.20;;;;;;5054786;28;20036;-76
2021/11/05 02:18:25;;;;;;;15.50;6.27;;;6.00;99.20;;;;;;5056024;28;20052;-75
2021/11/05 02:20:55;;;;;;;14.97;5.70;;;6.00;99.20;;;;;;5037990;28;20025;-75
2021/11/05 02:23:22;;;;;;;11.40;5.83;;;6.00;99.20;;;;;;5054523;28;20111;-75
2021/11/05 02:25:47;;;;;;;11.17;5.23;;;6.00;99.20;;;;;;5055742;28;20507;-75
2021/11/05 02:28:13;;;;;;;10.17;4.33;;;6.00;99.30;;;;;;5054372;28;20132;-75
2021/11/05 02:30:39;;;;;;;11.60;4.50;;;6.00;99.30;;;;;;5054480;28;20120;-74
2021/11/05 02:33:06;;;;;;;10.00;4.40;;;6.10;99.30;;;;;;5021498;28;20551;-74
2021/11/05 02:35:32;;;;;;;8.67;4.33;;;6.00;99.30;;;;;;5038137;28;20052;-75
2021/11/05 02:37:58;;;;;;;9.63;4.47;;;6.00;99.30;;;;;;5055605;28;20465;-75
2021/11/05 02:40:23;;;;;;;9.00;4.60;;;6.00;99.30;;;;;;5055419;28;20472;-74
2021/11/05 02:42:49;;;;;;;11.20;3.97;;;6.00;99.30;;;;;;5037806;28;20534;-74
2021/11/05 02:45:14;;;;;;;12.17;3.80;;;6.00;99.30;;;;;;5055474;28;20033;-75
2021/11/05 02:47:41;;;;;;;11.37;4.07;;;6.00;99.40;;;;;;5054267;28;20481;-75
2021/11/05 02:50:11;;;;;;;9.03;3.50;;;6.00;99.40;;;;;;5055310;28;20056;-76
2021/11/05 02:52:37;;;;;;;7.40;3.30;;;6.00;99.40;;;;;;5055214;28;20033;-75
2021/11/05 02:55:04;;;;;;;7.60;3.60;;;6.00;99.40;;;;;;5055258;28;20465;-76
2021/11/05 02:57:29;;;;;;;14.07;3.77;;;6.00;99.40;;;;;;5037566;28;20025;-75
2021/11/05 02:59:55;;;;;;;10.87;4.33;;;6.00;99.50;;;;;;5053791;28;20115;-75
2021/11/05 03:02:23;;;;;;;7.57;3.13;;;5.90;99.50;;;;;;5054042;28;20076;-75
2021/11/05 03:04:49;;;;;;;6.97;3.47;;;6.00;99.50;;;;;;5053806;28;20485;-74
2021/11/05 03:07:15;;;;;;;8.57;3.00;;;6.00;99.50;;;;;;5053079;28;20033;-75
2021/11/05 03:09:41;;;;;;;9.53;3.40;;;6.00;99.50;;;;;;5054906;28;20477;-75
2021/11/05 03:12:11;;;;;;;8.10;3.70;;;6.00;99.50;;;;;;5053699;28;20428;-75
2021/11/05 03:14:40;;;;;;;8.97;3.27;;;6.00;99.50;;;;;;5053627;28;20108;-75
2021/11/05 03:17:07;;;;;;;7.70;2.90;;;6.00;99.50;;;;;;5054719;28;20473;-74
2021/11/05 03:19:33;;;;;;;6.43;3.43;;;6.00;99.50;;;;;;5054840;28;20055;-75
2021/11/05 03:21:59;;;;;;;10.93;2.90;;;6.00;99.50;;;;;;5054681;28;20029;-75
2021/11/05 03:24:25;;;;;;;9.17;3.20;;;6.00;99.50;;;;;;5053528;28;20052;-75
2021/11/05 03:26:51;;;;;;;8.07;2.70;;;6.00;99.60;;;;;;5053248;28;20051;-75
2021/11/05 03:29:17;;;;;;;7.20;2.60;;;6.00;99.60;;;;;;5052930;28;20480;-75
2021/11/05 03:31:43;;;;;;;6.80;2.60;;;6.00;99.60;;;;;;5053206;28;20587;-75
2021/11/05 03:34:09;;;;;;;7.30;2.73;;;6.00;99.60;;;;;;5053782;28;20024;-75
2021/11/05 03:36:35;;;;;;;9.03;2.80;;;6.00;99.60;;;;;;5053316;28;20036;-76
2021/11/05 03:39:01;;;;;;;7.90;2.70;;;6.00;99.60;;;;;;5053130;28;20032;-75
2021/11/05 03:41:27;;;;;;;5.27;2.20;;;6.00;99.60;;;;;;5036738;28;20021;-75
2021/11/05 03:43:53;;;;;;;5.63;2.00;;;6.00;99.70;;;;;;5054390;28;20035;-75
2021/11/05 03:46:19;;;;;;;8.03;2.67;;;5.90;99.70;;;;;;5036586;28;20074;-75
2021/11/05 03:48:44;;;;;;;7.43;2.23;;;5.90;99.70;;;;;;5052952;28;20029;-75
2021/11/05 03:51:11;;;;;;;9.17;2.53;;;5.90;99.70;;;;;;5036359;28;20029;-75
2021/11/05 03:53:37;;;;;;;5.20;2.10;;;5.90;99.70;;;;;;5054167;28;20171;-75
2021/11/05 03:56:04;;;;;;;8.00;2.40;;;5.90;99.70;;;;;;5054218;28;20563;-75
2021/11/05 03:58:30;;;;;;;9.00;2.97;;;5.90;99.70;;;;;;5052779;28;20021;-75
2021/11/05 04:00:55;;;;;;;6.97;2.77;;;6.00;99.70;;;;;;5052995;28;20033;-75
2021/11/05 04:03:22;;;;;;;6.07;2.20;;;5.90;99.80;;;;;;5054051;28;20029;-74
2021/11/05 04:05:48;;;;;;;5.90;2.33;;;5.90;99.80;;;;;;5053809;28;20029;-74
2021/11/05 04:08:13;;;;;;;8.97;2.67;;;5.90;99.80;;;;;;5019535;28;20489;-74
2021/11/05 04:10:39;;;;;;;9.20;2.90;;;5.80;99.80;;;;;;5052535;28;20025;-74
2021/11/05 04:13:05;;;;;;;5.73;2.67;;;5.90;99.90;;;;;;5036081;28;20035;-74
2021/11/05 04:15:31;;;;;;;6.97;2.40;;;5.90;99.90;;;;;;5052609;28;20057;-74
2021/11/05 04:17:57;;;;;;;5.90;2.13;;;5.90;99.90;;;;;;5053605;28;20017;-74
2021/11/05 04:20:22;;;;;;;5.10;2.57;;;5.90;99.80;;;;;;5053644;28;20032;-75
2021/11/05 04:22:48;;;;;;;5.00;2.20;;;5.90;99.80;;;;;;5035890;28;20020;-74
2021/11/05 04:25:14;;;;;;;6.93;2.87;;;5.90;99.70;;;;;;5035756;28;20056;-74
2021/11/05 04:27:39;;;;;;;9.97;3.50;;;5.80;99.60;;;;;;5052338;28;20108;-74
2021/11/05 04:30:11;;;;;;;6.30;3.20;;;5.80;99.60;;;;;;5035921;28;20431;-74
2021/11/05 04:32:37;;;;;;;8.67;3.70;;;5.70;99.50;;;;;;5052276;28;20025;-74
2021/11/05 04:35:03;;;;;;;9.50;4.00;;;5.80;99.50;;;;;;5053471;28;20029;-74
2021/11/05 04:37:28;;;;;;;6.93;2.70;;;5.70;99.50;;;;;;5053371;28;20056;-74
2021/11/05 04:39:54;;;;;;;7.53;3.87;;;5.60;99.50;;;;;;5052144;28;20041;-74
2021/11/05 04:42:20;;;;;;;6.60;3.67;;;5.60;99.50;;;;;;5053344;28;20619;-74
2021/11/05 04:44:45;;;;;;;11.17;3.90;;;5.50;99.40;;;;;;5052026;28;20504;-74
2021/11/05 04:47:11;;;;;;;7.90;4.03;;;5.50;99.50;;;;;;5053330;28;20112;-74
2021/11/05 04:49:37;;;;;;;8.60;4.93;;;5.50;99.50;;;;;;5051793;28;20130;-75
2021/11/05 04:52:03;;;;;;;11.03;4.83;;;5.40;99.50;;;;;;5051925;28;20028;-75
2021/11/05 04:54:29;;;;;;;11.43;5.57;;;5.40;99.50;;;;;;5051963;28;20108;-75
2021/11/05 04:56:54;;;;;;;12.70;6.13;;;5.40;99.50;;;;;;5053203;28;20064;-75
2021/11/05 04:59:20;;;;;;;11.20;6.03;;;5.40;99.60;;;;;;5035343;28;20064;-75
2021/11/05 05:01:47;;;;;;;13.77;6.43;;;5.30;99.60;;;;;;5052127;28;20503;-75
2021/11/05 05:04:13;;;;;;;15.03;6.83;;;5.40;99.60;;;;;;5053067;28;20032;-75
2021/11/05 05:06:39;;;;;;;14.20;6.77;;;5.30;99.60;;;;;;5051714;28;20044;-75
2021/11/05 05:09:05;;;;;;;13.30;6.37;;;5.30;99.60;;;;;;5051906;28;20041;-75
2021/11/05 05:11:30;;;;;;;16.40;8.20;;;5.30;99.60;;;;;;5053028;28;20040;-75
2021/11/05 05:13:56;;;;;;;13.43;7.43;;;5.20;99.60;;;;;;5053068;28;20044;-75
2021/11/05 05:16:22;;;;;;;14.60;7.27;;;5.20;99.60;;;;;;5051594;28;20017;-75
2021/11/05 05:18:48;;;;;;;16.60;8.17;;;5.20;99.60;;;;;;5051890;28;20029;-75
2021/11/05 05:21:15;;;;;;;17.90;8.50;;;5.20;99.60;;;;;;5051783;28;20104;-75
2021/11/05 05:23:40;;;;;;;23.13;9.03;;;5.20;99.60;;;;;;5052985;28;20100;-75
2021/11/05 05:26:06;;;;;;;20.53;8.67;;;5.20;99.50;;;;;;5052967;28;20148;-75
2021/11/05 05:28:32;;;;;;;16.73;8.10;;;5.20;99.50;;;;;;5052697;28;20131;-75
2021/11/05 05:31:06;;;;;;;31.47;9.93;;;5.20;99.60;;;;;;5054797;28;20033;-75
2021/11/05 05:33:31;;;;;;;17.35;8.98;;;5.10;99.60;;;;;;5056849;28;20027;-75
2021/11/05 05:35:57;;;;;;;16.73;9.93;;;5.10;99.50;;;;;;5039044;28;20025;-75
2021/11/05 05:38:22;;;;;;;17.13;8.97;;;5.10;99.50;;;;;;5055772;28;20219;-74
2021/11/05 05:40:48;;;;;;;19.83;9.23;;;5.00;99.50;;;;;;5055505;28;20033;-74
2021/11/05 05:43:14;;;;;;;19.03;10.23;;;5.00;99.60;;;;;;5055245;28;20028;-74
2021/11/05 05:45:40;;;;;;;24.80;10.47;;;5.10;99.60;;;;;;5055469;28;20029;-75
2021/11/05 05:48:05;;;;;;;25.27;10.50;;;5.00;99.70;;;;;;5055417;28;20416;-75
2021/11/05 05:50:31;;;;;;;17.70;10.23;;;4.90;99.70;;;;;;5056390;28;20055;-77
2021/11/05 05:52:57;;;;;;;21.83;11.13;;;5.00;99.80;;;;;;5056540;28;20032;-75
2021/11/05 05:55:25;;;;;;;26.80;11.13;;;5.00;99.80;;;;;;5056946;28;20107;-76
2021/11/05 05:57:52;;;;;;;27.57;10.73;;;5.00;99.90;;;;;;5056444;28;20044;-75
2021/11/05 06:00:18;;;;;;;23.60;10.77;;;4.90;99.90;;;;;;5056153;28;20033;-75
2021/11/05 06:02:45;;;;;;;39.27;10.60;;;5.00;99.90;;;;;;5038367;28;20064;-75
2021/11/05 06:05:11;;;;;;;35.80;12.03;;;5.10;99.90;;;;;;5050386;28;20472;-75
2021/11/05 06:07:37;;;;;;;63.17;11.27;;;5.00;99.90;;;;;;5047539;28;20052;-76
2021/11/05 06:10:04;;;;;;;41.27;9.97;;;5.10;99.90;;;;;;5044689;28;20037;-75
2021/11/05 06:12:31;;;;;;;49.27;11.63;;;5.00;99.90;;;;;;5056044;28;20059;-75
2021/11/05 06:14:57;;;;;;;49.63;10.77;;;5.10;99.90;;;;;;5055727;28;20029;-75
2021/11/05 06:17:23;;;;;;;49.70;10.57;;;5.10;99.90;;;;;;5055055;28;20076;-75
2021/11/05 06:19:49;;;;;;;76.63;12.13;;;5.10;99.90;;;;;;5055951;28;20404;-75
2021/11/05 06:22:15;;;;;;;97.53;11.77;;;5.10;99.90;;;;;;5054828;28;20032;-75
2021/11/05 06:24:40;;;;;;;45.93;10.93;;;5.20;99.90;;;;;;5054577;28;20029;-76
2021/11/05 06:27:06;;;;;;;52.73;9.90;;;5.20;99.90;;;;;;5052856;28;20027;-75
2021/11/05 06:29:32;;;;;;;54.97;10.50;;;5.10;99.90;;;;;;5055154;28;20055;-76
2021/11/05 06:31:58;;;;;;;57.33;9.93;;;5.20;99.90;;;;;;5042865;28;20431;-75
2021/11/05 06:34:23;;;;;;;68.37;10.30;;;5.30;99.90;;;;;;5055598;28;20028;-75
2021/11/05 06:36:49;;;;;;;76.27;10.03;;;5.30;99.90;;;;;;5053674;28;20048;-77
2021/11/05 06:39:15;;;;;;;67.57;9.17;;;5.30;99.90;;;;;;5053735;28;20291;-75
2021/11/05 06:41:40;;;;;;;73.27;10.17;;;5.30;99.90;;;;;;5053076;28;20029;-75
2021/11/05 06:44:06;;;;;;;58.63;8.87;;;5.30;99.90;;;;;;5036831;28;20033;-75
2021/11/05 06:46:32;;;;;;;59.33;9.17;;;5.30;99.90;;;;;;5055335;28;20033;-75
2021/11/05 06:48:57;;;;;;;73.33;9.13;;;5.20;99.90;;;;;;5054243;28;20040;-75
2021/11/05 06:51:23;;;;;;;54.17;8.00;;;5.20;99.90;;;;;;5037419;28;20036;-75
2021/11/05 06:53:49;;;;;;;28.40;8.53;;;5.20;99.90;;;;;;5054817;28;20113;-76
2021/11/05 06:56:14;;;;;;;48.50;8.67;;;5.20;99.90;;;;;;5054716;28;20052;-76
2021/11/05 06:58:41;;;;;;;32.63;8.57;;;5.20;99.90;;;;;;5054509;28;20027;-76
2021/11/05 07:01:07;;;;;;;34.00;7.90;;;5.40;99.90;;;;;;5053161;28;20025;-76
2021/11/05 07:03:34;;;;;;;16.47;7.47;;;5.20;99.90;;;;;;5054649;28;20059;-76
2021/11/05 07:05:59;;;;;;;23.30;7.20;;;5.30;99.90;;;;;;5054440;28;20037;-76
2021/11/05 07:08:26;;;;;;;25.27;6.30;;;5.30;99.90;;;;;;5054771;28;20115;-76
2021/11/05 07:10:52;;;;;;;15.70;6.43;;;5.30;99.90;;;;;;5053290;28;20036;-76
2021/11/05 07:13:18;;;;;;;26.23;6.37;;;5.30;99.90;;;;;;5052908;28;20028;-76
2021/11/05 07:15:44;;;;;;;14.03;6.30;;;5.30;99.90;;;;;;5053930;28;20092;-76
2021/11/05 07:18:10;;;;;;;22.30;5.90;;;5.30;99.90;;;;;;5054001;28;20063;-76
2021/11/05 07:20:36;;;;;;;14.07;6.73;;;5.20;99.90;;;;;;5054053;28;20082;-76
2021/11/05 07:23:03;;;;;;;13.00;5.53;;;5.30;99.90;;;;;;5053749;28;20025;-76
2021/11/05 07:25:29;;;;;;;21.83;5.90;;;5.30;99.90;;;;;;5049415;28;20068;-76
2021/11/05 07:27:55;;;;;;;14.77;6.17;;;5.30;99.90;;;;;;5033585;28;20056;-76
2021/11/05 07:30:21;;;;;;;9.67;6.37;;;5.40;99.90;;;;;;5074401;28;20497;-76
2021/11/05 07:32:47;;;;;;;12.50;6.40;;;5.30;99.90;;;;;;5052061;28;20020;-76
2021/11/05 07:35:16;;;;;;;15.10;6.23;;;5.40;99.90;;;;;;5050694;28;20017;-76
2021/11/05 07:37:42;;;;;;;30.27;5.70;;;5.50;99.90;;;;;;5049537;28;20067;-76
2021/11/05 07:40:09;;;;;;;23.33;5.30;;;5.50;99.90;;;;;;5031679;28;20022;-76
2021/11/05 07:42:39;;;;;;;28.03;6.60;;;5.50;99.90;;;;;;5032526;28;20030;-76
2021/11/05 07:45:07;;;;;;;41.03;6.00;;;5.70;99.90;;;;;;5033127;28;20030;-76
2021/11/05 07:47:33;;;;;;;17.50;5.43;;;5.60;99.90;;;;;;5049828;28;20108;-76
2021/11/05 07:49:59;;;;;;;27.43;5.90;;;5.70;99.90;;;;;;5034166;28;20033;-76
2021/11/05 07:52:25;;;;;;;34.03;5.83;;;5.80;99.90;;;;;;5033870;28;20542;-76
2021/11/05 07:54:51;;;;;;;26.17;5.47;;;5.80;99.90;;;;;;5034110;28;20132;-76
2021/11/05 07:57:17;;;;;;;23.57;5.63;;;5.70;99.90;;;;;;5033036;28;20060;-76
2021/11/05 07:59:42;;;;;;;11.27;5.60;;;5.70;99.90;;;;;;5033958;28;20113;-76
2021/11/05 08:02:08;;;;;;;24.63;5.67;;;5.80;99.90;;;;;;5032885;28;20021;-76
2021/11/05 08:04:35;;;;;;;17.20;5.90;;;5.70;99.90;;;;;;5021674;28;20067;-76
2021/11/05 08:07:00;;;;;;;9.87;5.57;;;5.80;99.90;;;;;;5052453;28;20043;-76
2021/11/05 08:09:26;;;;;;;14.73;5.87;;;5.90;99.90;;;;;;5053120;28;20119;-75
2021/11/05 08:11:52;;;;;;;13.87;6.20;;;5.90;99.90;;;;;;5052165;28;20070;-73
2021/11/05 08:14:17;;;;;;;16.60;6.93;;;6.00;99.90;;;;;;5053448;28;20017;-73
2021/11/05 08:16:43;;;;;;;11.40;6.87;;;6.00;99.90;;;;;;5035151;28;20056;-73
2021/11/05 08:19:09;;;;;;;14.13;6.87;;;6.10;99.90;;;;;;5050961;28;20040;-73
2021/11/05 08:21:34;;;;;;;14.73;7.63;;;6.20;99.90;;;;;;5051969;28;20063;-73
2021/11/05 08:24:01;;;;;;;12.30;7.40;;;6.20;99.90;;;;;;5053107;28;20437;-73
2021/11/05 08:26:28;;;;;;;12.73;6.77;;;6.20;99.90;;;;;;5051754;28;20029;-73
2021/11/05 08:28:55;;;;;;;12.90;7.63;;;6.30;99.90;;;;;;5051740;28;20040;-73
2021/11/05 08:31:21;;;;;;;12.00;7.37;;;6.30;99.90;;;;;;5035743;28;20104;-76
2021/11/05 08:33:47;;;;;;;12.67;7.07;;;6.40;99.90;;;;;;5053550;28;20056;-76
2021/11/05 08:36:17;;;;;;;16.30;7.10;;;6.40;99.90;;;;;;5049585;28;20065;-76
2021/11/05 08:38:44;;;;;;;15.93;7.23;;;6.40;99.90;;;;;;5032596;28;20111;-76
2021/11/05 08:41:11;;;;;;;14.17;6.63;;;6.50;99.90;;;;;;5031810;28;20037;-76
2021/11/05 08:43:37;;;;;;;10.40;6.20;;;6.60;99.90;;;;;;5033002;28;20492;-76
2021/11/05 08:46:05;;;;;;;13.03;6.77;;;6.60;99.90;;;;;;5034128;28;20033;-73
2021/11/05 08:48:32;;;;;;;13.17;7.70;;;6.70;99.90;;;;;;5051569;28;20041;-73
2021/11/05 08:51:00;;;;;;;14.10;7.10;;;6.80;99.90;;;;;;5035018;28;20189;-73
2021/11/05 08:53:25;;;;;;;13.77;6.13;;;6.90;99.90;;;;;;5052338;28;20380;-73
2021/11/05 08:55:51;;;;;;;11.47;5.97;;;6.90;99.90;;;;;;5035141;28;20120;-73
2021/11/05 08:58:17;;;;;;;9.27;5.47;;;7.00;99.90;;;;;;5035450;28;20085;-73
2021/11/05 09:00:43;;;;;;;10.57;5.57;;;7.10;99.90;;;;;;5051800;28;20432;-73
2021/11/05 09:03:09;;;;;;;13.57;5.73;;;7.10;99.90;;;;;;5051707;28;20033;-73
2021/11/05 09:05:36;;;;;;;10.37;5.20;;;7.20;99.90;;;;;;5052265;28;20384;-73
2021/11/05 09:08:03;;;;;;;8.23;4.90;;;7.30;99.90;;;;;;5051346;28;20444;-73
2021/11/05 09:10:29;;;;;;;9.83;4.47;;;7.40;99.90;;;;;;5051384;28;20492;-73
2021/11/05 09:12:56;;;;;;;11.40;4.77;;;7.50;99.90;;;;;;5052496;28;20445;-73
2021/11/05 09:15:25;;;;;;;7.83;4.30;;;7.50;99.90;;;;;;5051208;28;20436;-73
2021/11/05 09:17:52;;;;;;;13.40;5.27;;;7.70;99.90;;;;;;5052675;28;20021;-73
2021/11/05 09:20:18;;;;;;;8.20;4.37;;;7.80;99.90;;;;;;5050930;28;20036;-73
2021/11/05 09:22:44;;;;;;;10.63;4.77;;;7.90;99.90;;;;;;5051812;28;20496;-73
2021/11/05 09:25:10;;;;;;;9.83;4.13;;;8.10;99.90;;;;;;5052521;28;20029;-73
2021/11/05 09:27:36;;;;;;;10.00;4.53;;;8.30;99.90;;;;;;5051646;28;20037;-74
2021/11/05 09:30:06;;;;;;;8.83;4.20;;;8.60;99.90;;;;;;5052846;28;20059;-74
2021/11/05 09:32:32;;;;;;;10.70;4.23;;;9.00;99.90;;;;;;5085075;28;20055;-76
2021/11/05 09:34:58;;;;;;;9.03;3.27;;;9.30;99.90;;;;;;5052745;28;20017;-76
2021/11/05 09:37:23;;;;;;;7.10;2.87;;;9.60;99.90;;;;;;5052689;28;20505;-76
2021/11/05 09:39:49;;;;;;;5.32;2.50;;;10.20;99.90;;;;;;5051187;28;20017;-76
2021/11/05 09:42:16;;;;;;;8.05;3.17;;;10.80;99.90;;;;;;5050944;28;20041;-77
2021/11/05 09:44:43;;;;;;;6.72;3.20;;;11.50;99.90;;;;;;5051063;28;20540;-76
2021/11/05 09:47:09;;;;;;;6.55;2.88;;;12.30;99.90;;;;;;5052462;28;20108;-77
2021/11/05 09:49:34;;;;;;;8.07;3.20;;;13.00;99.90;;;;;;5051214;28;20127;-77
2021/11/05 09:52:03;;;;;;;8.55;3.45;;;13.60;99.90;;;;;;5051109;28;20013;-77
2021/11/05 09:54:31;;;;;;;6.40;3.03;;;14.20;99.90;;;;;;5052549;28;20029;-77
2021/11/05 09:56:57;;;;;;;8.18;2.90;;;14.60;99.90;;;;;;5052479;28;20097;-77
2021/11/05 09:59:23;;;;;;;6.80;2.88;;;14.70;99.90;;;;;;5052098;28;20029;-77
2021/11/05 10:01:49;;;;;;;7.28;3.38;;;14.70;99.70;;;;;;5051242;28;20556;-77
2021/11/05 10:04:15;;;;;;;8.32;3.15;;;14.70;99.40;;;;;;5052383;28;20039;-77
2021/11/05 10:07:01;;;;;;;6.35;2.75;;;14.80;98.10;;;;;;5034610;28;20111;-76
2021/11/05 10:09:37;;;;;;;10.05;2.17;;;14.70;96.70;;;;;;5050556;28;20075;-76
2021/11/05 10:12:08;;;;;;;5.95;2.00;;;14.60;96.10;;;;;;5051481;28;20021;-76
2021/11/05 10:14:34;;;;;;;5.97;1.95;;;14.60;96.30;;;;;;5052249;28;20020;-76
2021/11/05 10:17:04;;;;;;;12.40;2.78;;;15.00;96.30;;;;;;5055547;28;20020;-75
2021/11/05 10:19:49;;;;;;;5.85;2.47;;;15.40;95.90;;;;;;5056249;28;20369;-75
2021/11/05 10:22:46;;;;;;;6.50;2.13;;;16.00;95.20;;;;;;5050873;28;20131;-75
2021/11/05 10:25:28;;;;;;;5.97;2.33;;;16.60;94.60;;;;;;5034575;28;20048;-75
2021/11/05 10:28:16;;;;;;;5.68;2.15;;;17.10;93.70;;;;;;5034039;28;20071;-75
2021/11/05 10:30:45;;;;;;;4.80;1.70;;;17.60;93.20;;;;;;5035653;28;20116;-75
2021/11/05 10:33:19;;;;;;;3.97;1.30;;;18.20;92.90;;;;;;5045043;28;20032;-75
2021/11/05 10:35:48;;;;;;;8.65;1.70;;;18.70;91.10;;;;;;5055485;28;20381;-75
2021/11/05 10:38:15;;;;;;;6.10;1.40;;;19.30;90.50;;;;;;5055105;28;20443;-75
2021/11/05 10:40:44;;;;;;;4.15;1.10;;;19.80;88.10;;;;;;5054163;28;20017;-75
2021/11/05 10:43:11;;;;;;;5.68;1.10;;;20.20;84.90;;;;;;5055471;28;20029;-76
2021/11/05 10:45:38;;;;;;;8.25;1.20;;;20.60;83.30;;;;;;5037576;28;20033;-77
2021/11/05 10:48:11;;;;;;;4.63;1.05;;;21.00;78.70;;;;;;5054161;28;20089;-76
2021/11/05 10:51:11;;;;;;;7.13;1.10;;;21.30;75.90;;;;;;5055271;28;20033;-76
2021/11/05 10:53:40;;;;;;;3.28;0.80;;;21.60;74.60;;;;;;5043072;28;20041;-76
2021/11/05 10:56:12;;;;;;;3.03;0.77;;;21.90;71.60;;;;;;5053975;28;20017;-76
2021/11/05 10:58:51;;;;;;;3.75;0.65;;;22.20;70.20;;;;;;5053206;28;20032;-76
2021/11/05 11:01:20;;;;;;;2.47;0.70;;;22.40;67.50;;;;;;5048123;28;20048;-76
2021/11/05 11:03:47;;;;;;;5.32;1.05;;;22.60;66.20;;;;;;5035551;28;20120;-77
2021/11/05 11:06:20;;;;;;;4.95;0.90;;;22.80;64.70;;;;;;5034889;28;20114;-76
2021/11/05 11:08:49;;;;;;;5.93;1.10;;;23.10;63.70;;;;;;5035224;28;20485;-76
2021/11/05 11:11:43;;;;;;;6.28;0.93;;;23.40;63.20;;;;;;5034822;28;20383;-76
2021/11/05 11:14:10;;;;;;;3.97;0.90;;;23.80;61.00;;;;;;5035270;28;20017;-76
2021/11/05 11:16:38;;;;;;;3.97;1.27;;;24.20;61.70;;;;;;5035348;28;20032;-76
2021/11/05 11:19:06;;;;;;;5.00;1.23;;;24.40;59.20;;;;;;5050365;28;20025;-76
2021/11/05 11:21:38;;;;;;;5.82;1.38;;;24.60;58.20;;;;;;5054857;28;20025;-76
2021/11/05 11:24:07;;;;;;;3.28;0.85;;;24.90;57.60;;;;;;5055002;28;20098;-76
2021/11/05 11:26:35;;;;;;;3.65;0.80;;;25.10;55.90;;;;;;5054392;28;20037;-76
2021/11/05 11:29:02;;;;;;;4.13;0.65;;;25.10;54.20;;;;;;5050901;28;20072;-76
2021/11/05 11:31:28;;;;;;;4.78;0.98;;;24.70;53.60;;;;;;5044541;28;20058;-76
2021/11/05 11:33:54;;;;;;;3.78;0.60;;;24.70;53.30;;;;;;5054138;28;20029;-77
2021/11/05 11:36:21;;;;;;;4.85;0.70;;;24.90;52.40;;;;;;5053226;28;20082;-77
2021/11/05 11:38:51;;;;;;;6.68;0.80;;;25.10;51.30;;;;;;5054489;28;20029;-76
2021/11/05 11:41:18;;;;;;;4.63;0.52;;;24.90;50.20;;;;;;5054322;28;20517;-79
2021/11/05 11:43:45;;;;;;;3.78;0.73;;;24.40;49.50;;;;;;5053204;28;20445;-76
2021/11/05 11:46:11;;;;;;;6.85;1.00;;;23.50;49.20;;;;;;5053868;28;20043;-76
2021/11/05 11:48:44;;;;;;;3.63;0.52;;;22.60;50.50;;;;;;5054433;28;20115;-76
2021/11/05 11:51:33;;;;;;;2.60;0.40;;;22.20;52.30;;;;;;5054061;28;20500;-76
2021/11/05 11:54:16;;;;;;;3.50;0.50;;;22.30;52.60;;;;;;5053025;28;20047;-76
2021/11/05 11:56:42;;;;;;;3.53;0.70;;;21.90;52.60;;;;;;5052678;28;20025;-76
2021/11/05 11:59:14;;;;;;;3.13;0.52;;;21.30;53.10;;;;;;5054112;28;20025;-76
2021/11/05 12:01:45;;;;;;;7.05;0.88;;;20.80;53.80;;;;;;5052752;28;20021;-77
2021/11/05 12:04:15;;;;;;;7.32;0.68;;;20.10;54.60;;;;;;5053845;28;20079;-76
2021/11/05 12:06:46;;;;;;;6.97;0.80;;;19.60;55.40;;;;;;5053958;28;20477;-76
2021/11/05 12:09:36;;;;;;;3.13;0.50;;;19.00;56.30;;;;;;5052463;28;20095;-76
2021/11/05 12:12:23;;;;;;;4.97;0.60;;;18.50;57.30;;;;;;5053877;28;20017;-75
2021/11/05 12:15:01;;;;;;;3.60;0.60;;;17.90;58.40;;;;;;5053640;28;20031;-76
2021/11/05 12:17:45;;;;;;;4.93;0.90;;;17.40;59.80;;;;;;5053363;28;20040;-75
2021/11/05 12:20:34;;;;;;;8.23;0.77;;;17.00;61.20;;;;;;5053603;28;20404;-75
2021/11/05 12:23:09;;;;;;;4.55;0.73;;;16.60;62.30;;;;;;5053244;28;20029;-76
2021/11/05 12:25:42;;;;;;;4.47;0.68;;;16.20;63.50;;;;;;5052263;28;20030;-75
2021/11/05 12:28:19;;;;;;;5.97;0.60;;;15.90;64.40;;;;;;5049492;28;20052;-75
2021/11/05 12:30:47;;;;;;;4.70;0.70;;;15.70;65.30;;;;;;5053467;28;20025;-76
2021/11/05 12:33:34;;;;;;;7.78;0.70;;;15.50;66.70;;;;;;5053109;28;20032;-75
2021/11/05 12:36:03;;;;;;;4.00;0.43;;;15.40;68.10;;;;;;5053364;28;20465;-74
2021/11/05 12:38:30;;;;;;;6.90;0.55;;;15.20;68.30;;;;;;5053327;28;20124;-75
2021/11/05 12:41:04;;;;;;;2.40;0.40;;;15.00;68.80;;;;;;5053350;28;20034;-74
2021/11/05 12:43:36;;;;;;;4.93;1.05;;;14.90;69.00;;;;;;5053417;28;20116;-74
2021/11/05 12:46:19;;;;;;;3.10;0.30;;;14.70;69.70;;;;;;5053048;28;20413;-75
2021/11/05 12:48:52;;;;;;;5.90;0.50;;;14.60;70.70;;;;;;5053291;28;20031;-73
2021/11/05 12:51:19;;;;;;;3.58;0.52;;;14.40;71.60;;;;;;5051828;28;20596;-74